sensor_id;sensor_type;location;lat;lon;timestamp;P1;durP1;ratioP1;P2;durP2;ratioP2
15669;SDS011;18524;45.190;5.732;2023-04-21T00:02:15;10.93;;;9.80;;
15669;SDS011;18524;45.190;5.732;2023-04-21T00:07:06;11.80;;;10.00;;
15669;SDS011;18524;45.190;5.732;2023-04-21T00:11:57;10.57;;;9.50;;
15669;SDS011;18524;45.190;5.732;2023-04-21T00:16:48;9.97;;;8.93;;
15669;SDS011;18524;45.190;5.732;2023-04-21T00:21:41;10.37;;;9.37;;
15669;SDS011;18524;45.190;5.732;2023-04-21T00:26:31;9.50;;;8.60;;
15669;SDS011;18524;45.190;5.732;2023-04-21T00:31:22;11.40;;;8.97;;
15669;SDS011;18524;45.190;5.732;2023-04-21T00:36:12;10.10;;;9.00;;
15669;SDS011;18524;45.190;5.732;2023-04-21T00:41:03;9.20;;;8.30;;
15669;SDS011;18524;45.190;5.732;2023-04-21T00:45:53;9.97;;;8.93;;
15669;SDS011;18524;45.190;5.732;2023-04-21T00:50:44;11.13;;;8.77;;
15669;SDS011;18524;45.190;5.732;2023-04-21T00:55:34;11.67;;;9.23;;
15669;SDS011;18524;45.190;5.732;2023-04-21T01:00:25;10.40;;;9.40;;
15669;SDS011;18524;45.190;5.732;2023-04-21T01:05:15;9.97;;;8.73;;
15669;SDS011;18524;45.190;5.732;2023-04-21T01:10:07;9.57;;;8.60;;
15669;SDS011;18524;45.190;5.732;2023-04-21T01:14:58;10.03;;;9.03;;
15669;SDS011;18524;45.190;5.732;2023-04-21T01:19:49;9.73;;;8.83;;
15669;SDS011;18524;45.190;5.732;2023-04-21T01:24:45;9.67;;;8.77;;
15669;SDS011;18524;45.190;5.732;2023-04-21T01:29:38;9.80;;;8.80;;
15669;SDS011;18524;45.190;5.732;2023-04-21T01:34:29;9.13;;;8.23;;
15669;SDS011;18524;45.190;5.732;2023-04-21T01:39:20;9.30;;;8.13;;
15669;SDS011;18524;45.190;5.732;2023-04-21T01:44:10;9.00;;;8.10;;
15669;SDS011;18524;45.190;5.732;2023-04-21T01:49:00;9.60;;;8.60;;
15669;SDS011;18524;45.190;5.732;2023-04-21T01:53:51;7.70;;;6.90;;
15669;SDS011;18524;45.190;5.732;2023-04-21T01:58:41;8.50;;;7.60;;
15669;SDS011;18524;45.190;5.732;2023-04-21T02:03:32;9.37;;;8.37;;
15669;SDS011;18524;45.190;5.732;2023-04-21T02:08:22;9.87;;;8.87;;
15669;SDS011;18524;45.190;5.732;2023-04-21T02:13:12;9.93;;;8.93;;
15669;SDS011;18524;45.190;5.732;2023-04-21T02:18:03;10.27;;;8.90;;
15669;SDS011;18524;45.190;5.732;2023-04-21T02:22:53;10.83;;;9.73;;
15669;SDS011;18524;45.190;5.732;2023-04-21T02:27:43;11.30;;;10.17;;
15669;SDS011;18524;45.190;5.732;2023-04-21T02:32:34;12.07;;;10.87;;
15669;SDS011;18524;45.190;5.732;2023-04-21T02:37:24;12.10;;;10.90;;
15669;SDS011;18524;45.190;5.732;2023-04-21T02:42:15;12.67;;;11.27;;
15669;SDS011;18524;45.190;5.732;2023-04-21T02:47:05;12.30;;;11.00;;
15669;SDS011;18524;45.190;5.732;2023-04-21T02:51:59;13.93;;;12.43;;
15669;SDS011;18524;45.190;5.732;2023-04-21T02:56:49;13.13;;;11.60;;
15669;SDS011;18524;45.190;5.732;2023-04-21T03:01:40;15.63;;;13.87;;
15669;SDS011;18524;45.190;5.732;2023-04-21T03:06:31;16.63;;;14.23;;
15669;SDS011;18524;45.190;5.732;2023-04-21T03:11:22;16.07;;;14.40;;
15669;SDS011;18524;45.190;5.732;2023-04-21T03:16:13;18.20;;;16.13;;
15669;SDS011;18524;45.190;5.732;2023-04-21T03:21:03;21.33;;;16.83;;
15669;SDS011;18524;45.190;5.732;2023-04-21T03:25:53;19.57;;;16.93;;
15669;SDS011;18524;45.190;5.732;2023-04-21T03:30:44;23.70;;;18.77;;
15669;SDS011;18524;45.190;5.732;2023-04-21T03:35:34;25.07;;;19.00;;
15669;SDS011;18524;45.190;5.732;2023-04-21T03:40:25;25.43;;;18.60;;
15669;SDS011;18524;45.190;5.732;2023-04-21T03:45:15;24.40;;;18.53;;
15669;SDS011;18524;45.190;5.732;2023-04-21T03:50:08;24.50;;;17.77;;
15669;SDS011;18524;45.190;5.732;2023-04-21T03:54:58;22.37;;;18.70;;
15669;SDS011;18524;45.190;5.732;2023-04-21T03:59:49;20.83;;;17.90;;
15669;SDS011;18524;45.190;5.732;2023-04-21T04:04:40;23.33;;;19.63;;
15669;SDS011;18524;45.190;5.732;2023-04-21T04:09:30;26.30;;;21.07;;
15669;SDS011;18524;45.190;5.732;2023-04-21T04:14:21;25.57;;;20.07;;
15669;SDS011;18524;45.190;5.732;2023-04-21T04:19:11;27.37;;;20.57;;
15669;SDS011;18524;45.190;5.732;2023-04-21T04:24:01;25.97;;;21.30;;
15669;SDS011;18524;45.190;5.732;2023-04-21T04:28:54;26.00;;;21.20;;
15669;SDS011;18524;45.190;5.732;2023-04-21T04:33:45;28.63;;;21.57;;
15669;SDS011;18524;45.190;5.732;2023-04-21T04:38:35;26.70;;;21.77;;
15669;SDS011;18524;45.190;5.732;2023-04-21T04:43:26;27.00;;;21.43;;
15669;SDS011;18524;45.190;5.732;2023-04-21T04:48:17;27.83;;;21.70;;
15669;SDS011;18524;45.190;5.732;2023-04-21T04:53:07;28.27;;;20.77;;
15669;SDS011;18524;45.190;5.732;2023-04-21T04:57:57;24.83;;;20.50;;
15669;SDS011;18524;45.190;5.732;2023-04-21T05:02:48;24.67;;;20.27;;
15669;SDS011;18524;45.190;5.732;2023-04-21T05:07:38;26.80;;;20.03;;
15669;SDS011;18524;45.190;5.732;2023-04-21T05:12:29;26.90;;;20.37;;
15669;SDS011;18524;45.190;5.732;2023-04-21T05:17:21;29.83;;;22.03;;
15669;SDS011;18524;45.190;5.732;2023-04-21T05:22:11;27.17;;;22.23;;
15669;SDS011;18524;45.190;5.732;2023-04-21T05:27:01;25.33;;;21.00;;
15669;SDS011;18524;45.190;5.732;2023-04-21T05:31:52;29.07;;;22.00;;
15669;SDS011;18524;45.190;5.732;2023-04-21T05:36:42;29.20;;;21.60;;
15669;SDS011;18524;45.190;5.732;2023-04-21T05:41:33;28.27;;;23.03;;
15669;SDS011;18524;45.190;5.732;2023-04-21T05:46:23;27.27;;;21.33;;
15669;SDS011;18524;45.190;5.732;2023-04-21T05:51:14;27.03;;;20.90;;
15669;SDS011;18524;45.190;5.732;2023-04-21T05:56:04;28.60;;;21.57;;
15669;SDS011;18524;45.190;5.732;2023-04-21T06:00:57;25.50;;;20.13;;
15669;SDS011;18524;45.190;5.732;2023-04-21T06:05:51;19.87;;;16.20;;
15669;SDS011;18524;45.190;5.732;2023-04-21T06:10:43;16.63;;;14.83;;
15669;SDS011;18524;45.190;5.732;2023-04-21T06:15:34;13.43;;;10.70;;
15669;SDS011;18524;45.190;5.732;2023-04-21T06:20:25;10.63;;;9.53;;
15669;SDS011;18524;45.190;5.732;2023-04-21T06:25:16;12.77;;;11.30;;
15669;SDS011;18524;45.190;5.732;2023-04-21T06:30:06;14.30;;;12.80;;
15669;SDS011;18524;45.190;5.732;2023-04-21T06:34:57;16.77;;;13.00;;
15669;SDS011;18524;45.190;5.732;2023-04-21T06:39:47;13.63;;;12.07;;
15669;SDS011;18524;45.190;5.732;2023-04-21T06:44:38;11.80;;;10.60;;
15669;SDS011;18524;45.190;5.732;2023-04-21T06:49:28;11.47;;;10.03;;
15669;SDS011;18524;45.190;5.732;2023-04-21T06:54:18;11.37;;;10.13;;
15669;SDS011;18524;45.190;5.732;2023-04-21T06:59:09;9.73;;;8.73;;
15669;SDS011;18524;45.190;5.732;2023-04-21T07:04:00;8.97;;;8.07;;
15669;SDS011;18524;45.190;5.732;2023-04-21T07:08:50;8.40;;;7.50;;
15669;SDS011;18524;45.190;5.732;2023-04-21T07:13:40;9.60;;;7.73;;
15669;SDS011;18524;45.190;5.732;2023-04-21T07:18:31;7.50;;;6.80;;
15669;SDS011;18524;45.190;5.732;2023-04-21T07:23:21;7.00;;;6.40;;
15669;SDS011;18524;45.190;5.732;2023-04-21T07:28:12;6.77;;;6.03;;
15669;SDS011;18524;45.190;5.732;2023-04-21T07:33:04;7.37;;;5.90;;
15669;SDS011;18524;45.190;5.732;2023-04-21T07:37:55;7.07;;;5.40;;
15669;SDS011;18524;45.190;5.732;2023-04-21T07:42:45;4.80;;;4.30;;
15669;SDS011;18524;45.190;5.732;2023-04-21T07:47:36;4.47;;;3.80;;
15669;SDS011;18524;45.190;5.732;2023-04-21T07:52:26;4.90;;;3.77;;
15669;SDS011;18524;45.190;5.732;2023-04-21T07:57:16;4.47;;;3.67;;
15669;SDS011;18524;45.190;5.732;2023-04-21T08:02:07;4.83;;;3.77;;
15669;SDS011;18524;45.190;5.732;2023-04-21T08:06:58;3.90;;;3.57;;
15669;SDS011;18524;45.190;5.732;2023-04-21T08:11:48;3.60;;;3.30;;
15669;SDS011;18524;45.190;5.732;2023-04-21T08:16:38;3.13;;;2.90;;
15669;SDS011;18524;45.190;5.732;2023-04-21T08:21:31;3.40;;;2.70;;
15669;SDS011;18524;45.190;5.732;2023-04-21T08:26:22;2.73;;;2.50;;
15669;SDS011;18524;45.190;5.732;2023-04-21T08:31:14;3.40;;;2.23;;
15669;SDS011;18524;45.190;5.732;2023-04-21T08:36:05;2.53;;;2.20;;
15669;SDS011;18524;45.190;5.732;2023-04-21T08:40:56;3.50;;;2.50;;
15669;SDS011;18524;45.190;5.732;2023-04-21T08:45:48;2.67;;;2.47;;
15669;SDS011;18524;45.190;5.732;2023-04-21T08:50:40;2.67;;;2.20;;
15669;SDS011;18524;45.190;5.732;2023-04-21T08:55:34;2.77;;;2.13;;
15669;SDS011;18524;45.190;5.732;2023-04-21T09:00:25;3.40;;;2.20;;
15669;SDS011;18524;45.190;5.732;2023-04-21T09:05:20;3.13;;;2.83;;
15669;SDS011;18524;45.190;5.732;2023-04-21T09:10:16;3.03;;;2.50;;
15669;SDS011;18524;45.190;5.732;2023-04-21T09:15:11;4.27;;;2.60;;
15669;SDS011;18524;45.190;5.732;2023-04-21T09:25:04;2.30;;;2.10;;
15669;SDS011;18524;45.190;5.732;2023-04-21T09:30:01;2.47;;;2.27;;
15669;SDS011;18524;45.190;5.732;2023-04-21T09:34:53;2.70;;;2.50;;
15669;SDS011;18524;45.190;5.732;2023-04-21T09:39:49;4.00;;;2.50;;
15669;SDS011;18524;45.190;5.732;2023-04-21T09:44:40;3.27;;;2.60;;
15669;SDS011;18524;45.190;5.732;2023-04-21T09:49:32;4.23;;;2.60;;
15669;SDS011;18524;45.190;5.732;2023-04-21T09:54:31;2.90;;;2.30;;
15669;SDS011;18524;45.190;5.732;2023-04-21T09:59:28;2.37;;;2.10;;
15669;SDS011;18524;45.190;5.732;2023-04-21T10:04:21;3.37;;;2.70;;
15669;SDS011;18524;45.190;5.732;2023-04-21T10:09:15;3.47;;;3.17;;
15669;SDS011;18524;45.190;5.732;2023-04-21T10:14:07;5.63;;;3.80;;
15669;SDS011;18524;45.190;5.732;2023-04-21T10:18:58;7.27;;;5.40;;
15669;SDS011;18524;45.190;5.732;2023-04-21T10:23:48;3.67;;;3.23;;
15669;SDS011;18524;45.190;5.732;2023-04-21T10:29:03;4.23;;;3.40;;
15669;SDS011;18524;45.190;5.732;2023-04-21T10:38:55;3.00;;;2.70;;
15669;SDS011;18524;45.190;5.732;2023-04-21T10:43:49;4.97;;;3.30;;
15669;SDS011;18524;45.190;5.732;2023-04-21T10:48:40;4.73;;;2.90;;
15669;SDS011;18524;45.190;5.732;2023-04-21T10:53:40;3.43;;;2.97;;
15669;SDS011;18524;45.190;5.732;2023-04-21T10:58:32;3.80;;;2.87;;
15669;SDS011;18524;45.190;5.732;2023-04-21T11:03:25;2.73;;;2.53;;
15669;SDS011;18524;45.190;5.732;2023-04-21T11:08:23;6.47;;;4.50;;
15669;SDS011;18524;45.190;5.732;2023-04-21T11:13:14;3.23;;;2.63;;
15669;SDS011;18524;45.190;5.732;2023-04-21T11:18:05;3.60;;;2.83;;
15669;SDS011;18524;45.190;5.732;2023-04-21T11:22:57;3.10;;;2.87;;
15669;SDS011;18524;45.190;5.732;2023-04-21T11:27:57;4.10;;;2.80;;
15669;SDS011;18524;45.190;5.732;2023-04-21T11:32:52;3.00;;;2.80;;
15669;SDS011;18524;45.190;5.732;2023-04-21T11:37:44;4.43;;;3.00;;
15669;SDS011;18524;45.190;5.732;2023-04-21T11:42:34;2.90;;;2.70;;
15669;SDS011;18524;45.190;5.732;2023-04-21T11:47:26;3.33;;;2.97;;
15669;SDS011;18524;45.190;5.732;2023-04-21T11:52:24;2.60;;;2.40;;
15669;SDS011;18524;45.190;5.732;2023-04-21T11:57:22;3.43;;;2.20;;
15669;SDS011;18524;45.190;5.732;2023-04-21T12:02:21;3.90;;;2.37;;
15669;SDS011;18524;45.190;5.732;2023-04-21T12:07:13;3.13;;;2.20;;
15669;SDS011;18524;45.190;5.732;2023-04-21T12:12:11;2.47;;;1.93;;
15669;SDS011;18524;45.190;5.732;2023-04-21T12:17:05;5.90;;;2.17;;
15669;SDS011;18524;45.190;5.732;2023-04-21T12:21:55;3.50;;;1.97;;
15669;SDS011;18524;45.190;5.732;2023-04-21T12:26:46;2.47;;;1.97;;
15669;SDS011;18524;45.190;5.732;2023-04-21T12:31:36;2.00;;;1.90;;
15669;SDS011;18524;45.190;5.732;2023-04-21T12:36:27;1.70;;;1.50;;
15669;SDS011;18524;45.190;5.732;2023-04-21T12:41:17;1.77;;;1.67;;
15669;SDS011;18524;45.190;5.732;2023-04-21T12:46:08;1.73;;;1.30;;
15669;SDS011;18524;45.190;5.732;2023-04-21T12:50:58;1.90;;;1.23;;
15669;SDS011;18524;45.190;5.732;2023-04-21T12:55:49;3.00;;;1.30;;
15669;SDS011;18524;45.190;5.732;2023-04-21T13:00:39;1.90;;;1.30;;
15669;SDS011;18524;45.190;5.732;2023-04-21T13:05:30;2.80;;;1.10;;
15669;SDS011;18524;45.190;5.732;2023-04-21T13:10:20;2.13;;;1.40;;
15669;SDS011;18524;45.190;5.732;2023-04-21T13:15:11;3.13;;;1.10;;
15669;SDS011;18524;45.190;5.732;2023-04-21T13:20:02;3.40;;;1.50;;
15669;SDS011;18524;45.190;5.732;2023-04-21T13:24:53;3.50;;;1.47;;
15669;SDS011;18524;45.190;5.732;2023-04-21T13:29:43;1.90;;;1.27;;
15669;SDS011;18524;45.190;5.732;2023-04-21T13:34:34;2.10;;;1.30;;
15669;SDS011;18524;45.190;5.732;2023-04-21T13:39:25;1.63;;;1.40;;
15669;SDS011;18524;45.190;5.732;2023-04-21T13:44:16;3.00;;;1.60;;
15669;SDS011;18524;45.190;5.732;2023-04-21T13:49:06;2.70;;;1.50;;
15669;SDS011;18524;45.190;5.732;2023-04-21T13:53:57;3.60;;;1.37;;
15669;SDS011;18524;45.190;5.732;2023-04-21T13:58:47;1.50;;;1.40;;
15669;SDS011;18524;45.190;5.732;2023-04-21T14:03:38;1.73;;;1.20;;
15669;SDS011;18524;45.190;5.732;2023-04-21T14:08:28;2.07;;;1.30;;
15669;SDS011;18524;45.190;5.732;2023-04-21T14:13:18;1.33;;;1.20;;
15669;SDS011;18524;45.190;5.732;2023-04-21T14:18:09;1.40;;;1.30;;
15669;SDS011;18524;45.190;5.732;2023-04-21T14:22:59;1.40;;;1.30;;
15669;SDS011;18524;45.190;5.732;2023-04-21T14:27:50;2.20;;;1.30;;
15669;SDS011;18524;45.190;5.732;2023-04-21T14:32:40;1.57;;;1.30;;
15669;SDS011;18524;45.190;5.732;2023-04-21T14:37:34;1.87;;;1.50;;
15669;SDS011;18524;45.190;5.732;2023-04-21T14:42:24;2.30;;;1.33;;
15669;SDS011;18524;45.190;5.732;2023-04-21T14:47:15;3.67;;;1.50;;
15669;SDS011;18524;45.190;5.732;2023-04-21T14:52:05;2.43;;;1.37;;
15669;SDS011;18524;45.190;5.732;2023-04-21T14:56:56;1.70;;;1.43;;
15669;SDS011;18524;45.190;5.732;2023-04-21T15:01:47;1.70;;;1.20;;
15669;SDS011;18524;45.190;5.732;2023-04-21T15:06:37;2.40;;;1.47;;
15669;SDS011;18524;45.190;5.732;2023-04-21T15:11:27;2.93;;;1.70;;
15669;SDS011;18524;45.190;5.732;2023-04-21T15:16:18;1.70;;;1.60;;
15669;SDS011;18524;45.190;5.732;2023-04-21T15:21:08;2.13;;;1.70;;
15669;SDS011;18524;45.190;5.732;2023-04-21T15:25:59;3.40;;;1.70;;
15669;SDS011;18524;45.190;5.732;2023-04-21T15:30:49;2.17;;;1.80;;
15669;SDS011;18524;45.190;5.732;2023-04-21T15:35:40;2.40;;;1.97;;
15669;SDS011;18524;45.190;5.732;2023-04-21T15:40:30;1.97;;;1.80;;
15669;SDS011;18524;45.190;5.732;2023-04-21T15:45:21;2.23;;;1.70;;
15669;SDS011;18524;45.190;5.732;2023-04-21T15:50:11;1.80;;;1.70;;
15669;SDS011;18524;45.190;5.732;2023-04-21T15:55:01;2.17;;;1.67;;
15669;SDS011;18524;45.190;5.732;2023-04-21T15:59:52;2.50;;;1.90;;
15669;SDS011;18524;45.190;5.732;2023-04-21T16:04:42;2.77;;;1.73;;
15669;SDS011;18524;45.190;5.732;2023-04-21T16:09:33;1.87;;;1.70;;
15669;SDS011;18524;45.190;5.732;2023-04-21T16:14:23;2.93;;;1.90;;
15669;SDS011;18524;45.190;5.732;2023-04-21T16:19:14;1.87;;;1.77;;
15669;SDS011;18524;45.190;5.732;2023-04-21T16:24:05;1.80;;;1.70;;
15669;SDS011;18524;45.190;5.732;2023-04-21T16:28:56;2.63;;;2.20;;
15669;SDS011;18524;45.190;5.732;2023-04-21T16:33:46;2.00;;;1.80;;
15669;SDS011;18524;45.190;5.732;2023-04-21T16:38:38;2.97;;;1.80;;
15669;SDS011;18524;45.190;5.732;2023-04-21T16:43:28;2.03;;;1.83;;
15669;SDS011;18524;45.190;5.732;2023-04-21T16:48:19;2.00;;;1.80;;
15669;SDS011;18524;45.190;5.732;2023-04-21T16:53:09;2.30;;;2.13;;
15669;SDS011;18524;45.190;5.732;2023-04-21T16:58:00;2.53;;;2.07;;
15669;SDS011;18524;45.190;5.732;2023-04-21T17:02:50;3.70;;;2.13;;
15669;SDS011;18524;45.190;5.732;2023-04-21T17:07:41;2.43;;;2.03;;
15669;SDS011;18524;45.190;5.732;2023-04-21T17:12:32;2.50;;;2.00;;
15669;SDS011;18524;45.190;5.732;2023-04-21T17:17:22;2.47;;;2.13;;
15669;SDS011;18524;45.190;5.732;2023-04-21T17:22:13;2.13;;;1.90;;
15669;SDS011;18524;45.190;5.732;2023-04-21T17:27:03;2.50;;;2.13;;
15669;SDS011;18524;45.190;5.732;2023-04-21T17:31:53;2.33;;;2.13;;
15669;SDS011;18524;45.190;5.732;2023-04-21T17:36:44;2.63;;;2.20;;
15669;SDS011;18524;45.190;5.732;2023-04-21T17:41:34;3.23;;;2.33;;
15669;SDS011;18524;45.190;5.732;2023-04-21T17:46:25;2.77;;;2.10;;
15669;SDS011;18524;45.190;5.732;2023-04-21T17:51:16;2.37;;;2.00;;
15669;SDS011;18524;45.190;5.732;2023-04-21T17:56:08;3.63;;;1.90;;
15669;SDS011;18524;45.190;5.732;2023-04-21T18:00:59;2.17;;;2.07;;
15669;SDS011;18524;45.190;5.732;2023-04-21T18:05:50;3.30;;;2.10;;
15669;SDS011;18524;45.190;5.732;2023-04-21T18:10:41;2.83;;;2.20;;
15669;SDS011;18524;45.190;5.732;2023-04-21T18:15:31;2.50;;;2.30;;
15669;SDS011;18524;45.190;5.732;2023-04-21T18:20:22;2.67;;;2.27;;
15669;SDS011;18524;45.190;5.732;2023-04-21T18:25:12;2.60;;;2.07;;
15669;SDS011;18524;45.190;5.732;2023-04-21T18:30:03;2.50;;;2.30;;
15669;SDS011;18524;45.190;5.732;2023-04-21T18:34:55;2.37;;;2.17;;
15669;SDS011;18524;45.190;5.732;2023-04-21T18:39:45;3.23;;;2.50;;
15669;SDS011;18524;45.190;5.732;2023-04-21T18:44:35;2.60;;;2.30;;
15669;SDS011;18524;45.190;5.732;2023-04-21T18:49:26;4.40;;;2.40;;
15669;SDS011;18524;45.190;5.732;2023-04-21T18:54:16;3.53;;;2.80;;
15669;SDS011;18524;45.190;5.732;2023-04-21T18:59:06;4.20;;;2.60;;
15669;SDS011;18524;45.190;5.732;2023-04-21T19:03:58;2.40;;;2.20;;
15669;SDS011;18524;45.190;5.732;2023-04-21T19:08:49;4.13;;;2.70;;
15669;SDS011;18524;45.190;5.732;2023-04-21T19:13:42;3.67;;;2.83;;
15669;SDS011;18524;45.190;5.732;2023-04-21T19:18:32;3.57;;;3.20;;
15669;SDS011;18524;45.190;5.732;2023-04-21T19:23:23;3.10;;;2.90;;
15669;SDS011;18524;45.190;5.732;2023-04-21T19:28:13;2.83;;;2.47;;
15669;SDS011;18524;45.190;5.732;2023-04-21T19:33:03;3.40;;;2.30;;
15669;SDS011;18524;45.190;5.732;2023-04-21T19:37:54;2.80;;;2.60;;
15669;SDS011;18524;45.190;5.732;2023-04-21T19:42:45;2.37;;;2.17;;
15669;SDS011;18524;45.190;5.732;2023-04-21T19:47:35;3.73;;;2.40;;
15669;SDS011;18524;45.190;5.732;2023-04-21T19:52:25;2.40;;;2.20;;
15669;SDS011;18524;45.190;5.732;2023-04-21T19:57:16;2.83;;;2.50;;
15669;SDS011;18524;45.190;5.732;2023-04-21T20:02:06;2.47;;;2.20;;
15669;SDS011;18524;45.190;5.732;2023-04-21T20:06:57;2.63;;;2.43;;
15669;SDS011;18524;45.190;5.732;2023-04-21T20:11:47;3.30;;;2.40;;
15669;SDS011;18524;45.190;5.732;2023-04-21T20:16:38;4.10;;;2.23;;
15669;SDS011;18524;45.190;5.732;2023-04-21T20:21:28;2.70;;;2.43;;
15669;SDS011;18524;45.190;5.732;2023-04-21T20:26:19;2.10;;;2.00;;
15669;SDS011;18524;45.190;5.732;2023-04-21T20:31:09;2.60;;;2.40;;
15669;SDS011;18524;45.190;5.732;2023-04-21T20:36:00;3.37;;;3.00;;
15669;SDS011;18524;45.190;5.732;2023-04-21T20:40:56;4.00;;;2.40;;
15669;SDS011;18524;45.190;5.732;2023-04-21T20:45:46;3.33;;;2.30;;
15669;SDS011;18524;45.190;5.732;2023-04-21T20:50:37;2.13;;;1.70;;
15669;SDS011;18524;45.190;5.732;2023-04-21T20:55:28;2.50;;;2.30;;
15669;SDS011;18524;45.190;5.732;2023-04-21T21:00:19;2.67;;;2.00;;
15669;SDS011;18524;45.190;5.732;2023-04-21T21:05:09;2.03;;;1.83;;
15669;SDS011;18524;45.190;5.732;2023-04-21T21:10:00;3.23;;;2.77;;
15669;SDS011;18524;45.190;5.732;2023-04-21T21:14:50;2.20;;;2.00;;
15669;SDS011;18524;45.190;5.732;2023-04-21T21:19:41;3.67;;;2.23;;
15669;SDS011;18524;45.190;5.732;2023-04-21T21:24:32;2.53;;;2.20;;
15669;SDS011;18524;45.190;5.732;2023-04-21T21:29:22;3.77;;;2.20;;
15669;SDS011;18524;45.190;5.732;2023-04-21T21:34:13;4.43;;;1.90;;
15669;SDS011;18524;45.190;5.732;2023-04-21T21:39:03;2.40;;;1.97;;
15669;SDS011;18524;45.190;5.732;2023-04-21T21:43:55;2.20;;;1.97;;
15669;SDS011;18524;45.190;5.732;2023-04-21T21:48:45;2.60;;;2.10;;
15669;SDS011;18524;45.190;5.732;2023-04-21T21:53:36;2.53;;;2.20;;
15669;SDS011;18524;45.190;5.732;2023-04-21T21:58:26;2.53;;;2.30;;
15669;SDS011;18524;45.190;5.732;2023-04-21T22:03:17;2.43;;;2.23;;
15669;SDS011;18524;45.190;5.732;2023-04-21T22:08:08;5.37;;;4.87;;
15669;SDS011;18524;45.190;5.732;2023-04-21T22:12:58;13.30;;;11.30;;
15669;SDS011;18524;45.190;5.732;2023-04-21T22:17:49;7.17;;;6.47;;
15669;SDS011;18524;45.190;5.732;2023-04-21T22:22:40;10.37;;;7.53;;
15669;SDS011;18524;45.190;5.732;2023-04-21T22:27:30;5.13;;;3.40;;
15669;SDS011;18524;45.190;5.732;2023-04-21T22:32:23;2.70;;;2.00;;
15669;SDS011;18524;45.190;5.732;2023-04-21T22:37:13;2.63;;;2.40;;
15669;SDS011;18524;45.190;5.732;2023-04-21T22:42:04;3.40;;;2.17;;
15669;SDS011;18524;45.190;5.732;2023-04-21T22:46:55;2.23;;;2.03;;
15669;SDS011;18524;45.190;5.732;2023-04-21T22:51:46;3.17;;;2.00;;
15669;SDS011;18524;45.190;5.732;2023-04-21T22:56:36;2.50;;;1.97;;
15669;SDS011;18524;45.190;5.732;2023-04-21T23:01:27;2.13;;;1.97;;
15669;SDS011;18524;45.190;5.732;2023-04-21T23:06:18;2.03;;;1.83;;
15669;SDS011;18524;45.190;5.732;2023-04-21T23:11:08;2.00;;;1.70;;
15669;SDS011;18524;45.190;5.732;2023-04-21T23:15:59;2.40;;;1.87;;
15669;SDS011;18524;45.190;5.732;2023-04-21T23:20:50;2.33;;;1.90;;
15669;SDS011;18524;45.190;5.732;2023-04-21T23:25:41;2.67;;;2.10;;
15669;SDS011;18524;45.190;5.732;2023-04-21T23:30:31;2.63;;;2.30;;
15669;SDS011;18524;45.190;5.732;2023-04-21T23:35:22;1.90;;;1.80;;
15669;SDS011;18524;45.190;5.732;2023-04-21T23:40:12;2.90;;;2.00;;
15669;SDS011;18524;45.190;5.732;2023-04-21T23:45:03;2.13;;;1.90;;
15669;SDS011;18524;45.190;5.732;2023-04-21T23:49:53;2.03;;;1.60;;
15669;SDS011;18524;45.190;5.732;2023-04-21T23:54:44;1.97;;;1.77;;
15669;SDS011;18524;45.190;5.732;2023-04-21T23:59:35;1.90;;;1.70;;
